Time;durP1;ratioP1;P1;durP2;ratioP2;P2;SDS_P1;SDS_P2;PMS_P1;PMS_P2;Temp;Humidity;BMP_temperature;BMP_pressure;BME280_temperature;BME280_humidity;BME280_pressure;Samples;Min_cycle;Max_cycle;Signal;HPM_P1;HPM_P2
2024/03/07 00:00:15;;;;;;;15.15;8.88;;;5.90;99.90;;;;;;5031018;28;20209;-74
2024/03/07 00:02:44;;;;;;;17.15;9.38;;;5.90;99.90;;;;;;5030917;28;20213;-74
2024/03/07 00:05:11;;;;;;;15.50;10.00;;;5.90;99.90;;;;;;5031503;28;20334;-74
2024/03/07 00:07:38;;;;;;;15.85;10.35;;;5.90;99.90;;;;;;5030993;28;20240;-74
2024/03/07 00:10:06;;;;;;;19.35;10.00;;;5.90;99.90;;;;;;5031034;28;20208;-74
2024/03/07 00:12:33;;;;;;;19.30;11.35;;;5.80;99.90;;;;;;5031111;28;20209;-74
2024/03/07 00:15:02;;;;;;;17.67;11.20;;;5.80;99.90;;;;;;5031121;28;20233;-74
2024/03/07 00:17:28;;;;;;;18.10;11.35;;;5.80;99.90;;;;;;5031383;28;20739;-74
2024/03/07 00:19:57;;;;;;;22.38;10.77;;;5.80;99.90;;;;;;5030794;28;20202;-74
2024/03/07 00:22:26;;;;;;;17.95;10.38;;;5.70;99.90;;;;;;5030977;28;20290;-74
2024/03/07 00:24:53;;;;;;;14.45;10.38;;;5.70;99.90;;;;;;5030877;28;20229;-73
2024/03/07 00:27:20;;;;;;;16.48;9.20;;;5.60;99.90;;;;;;5030831;28;20232;-74
2024/03/07 00:29:52;;;;;;;21.50;10.98;;;5.60;99.90;;;;;;5030453;28;20301;-73
2024/03/07 00:32:19;;;;;;;21.45;11.30;;;5.50;99.90;;;;;;5031366;28;20259;-73
2024/03/07 00:34:46;;;;;;;17.90;10.05;;;5.50;99.90;;;;;;5031001;28;20228;-74
2024/03/07 00:37:14;;;;;;;20.13;10.25;;;5.40;99.90;;;;;;5031337;28;20228;-74
2024/03/07 00:39:41;;;;;;;16.33;11.75;;;5.30;99.90;;;;;;5030741;28;20214;-74
2024/03/07 00:42:08;;;;;;;21.02;10.30;;;5.30;99.90;;;;;;5031002;28;20232;-73
2024/03/07 00:44:35;;;;;;;15.23;11.18;;;5.30;99.90;;;;;;5030431;28;20732;-74
2024/03/07 00:47:02;;;;;;;17.23;11.10;;;5.30;99.90;;;;;;5030778;28;20232;-74
2024/03/07 00:49:31;;;;;;;23.77;12.40;;;5.30;99.90;;;;;;5030373;28;20207;-74
2024/03/07 00:51:58;;;;;;;20.45;12.15;;;5.30;99.90;;;;;;5030958;28;20214;-73
2024/03/07 00:54:26;;;;;;;23.10;11.90;;;5.20;99.90;;;;;;5030710;28;20235;-74
2024/03/07 00:56:53;;;;;;;22.73;13.88;;;5.20;99.90;;;;;;5030480;28;20250;-74
2024/03/07 00:59:22;;;;;;;19.15;11.90;;;5.10;99.90;;;;;;5030506;28;20671;-74
2024/03/07 01:01:49;;;;;;;20.13;11.82;;;5.10;99.90;;;;;;5030315;28;20216;-73
2024/03/07 01:04:17;;;;;;;21.73;11.52;;;5.20;99.90;;;;;;5030507;28;20729;-74
2024/03/07 01:06:44;;;;;;;22.65;12.50;;;5.10;99.90;;;;;;5031910;28;20645;-74
2024/03/07 01:09:14;;;;;;;15.65;10.60;;;5.10;99.90;;;;;;5034171;28;20213;-73
2024/03/07 01:11:43;;;;;;;19.77;10.73;;;5.10;99.90;;;;;;5033657;28;20209;-74
2024/03/07 01:14:09;;;;;;;25.27;13.27;;;5.00;99.90;;;;;;5033909;28;20236;-73
2024/03/07 01:16:36;;;;;;;22.90;13.15;;;5.00;99.90;;;;;;5033831;28;20682;-74
2024/03/07 01:19:05;;;;;;;28.98;12.43;;;4.90;99.90;;;;;;5033786;28;20212;-75
2024/03/07 01:21:32;;;;;;;19.98;12.40;;;4.90;99.90;;;;;;5033593;28;20214;-74
2024/03/07 01:24:00;;;;;;;18.70;10.93;;;4.80;99.90;;;;;;5033639;28;20248;-75
2024/03/07 01:26:27;;;;;;;23.92;15.23;;;4.70;99.90;;;;;;5033850;28;20305;-74
2024/03/07 01:28:55;;;;;;;23.98;12.70;;;4.60;99.90;;;;;;5033501;28;20217;-74
2024/03/07 01:31:22;;;;;;;17.65;11.82;;;4.60;99.90;;;;;;5033698;28;20266;-74
2024/03/07 01:33:49;;;;;;;21.10;13.60;;;4.50;99.90;;;;;;5033371;28;20232;-74
2024/03/07 01:36:15;;;;;;;21.63;13.23;;;4.40;99.90;;;;;;5033794;28;20204;-73
2024/03/07 01:38:42;;;;;;;20.27;13.68;;;4.40;99.90;;;;;;5033334;28;20214;-74
2024/03/07 01:41:09;;;;;;;17.98;11.25;;;4.30;99.90;;;;;;5033301;28;20699;-74
2024/03/07 01:43:36;;;;;;;24.60;14.07;;;4.20;99.90;;;;;;5033266;28;20672;-74
2024/03/07 01:46:04;;;;;;;22.92;12.82;;;4.10;99.90;;;;;;5033390;28;20309;-74
2024/03/07 01:48:32;;;;;;;22.60;13.40;;;4.00;99.90;;;;;;5033216;28;20729;-74
2024/03/07 01:51:03;;;;;;;23.73;12.65;;;4.00;99.90;;;;;;5033018;28;20587;-74
2024/03/07 01:53:31;;;;;;;22.48;13.20;;;3.90;99.90;;;;;;5033258;28;20615;-74
2024/03/07 01:56:00;;;;;;;19.90;13.10;;;3.90;99.90;;;;;;5033190;28;20217;-73
2024/03/07 01:58:27;;;;;;;19.00;10.25;;;3.80;99.90;;;;;;5033169;28;20206;-74
2024/03/07 02:00:54;;;;;;;18.33;11.48;;;3.80;99.90;;;;;;5032845;28;20304;-74
2024/03/07 02:03:22;;;;;;;20.67;13.18;;;3.70;99.90;;;;;;5033221;28;20210;-74
2024/03/07 02:05:49;;;;;;;19.45;11.20;;;3.70;99.90;;;;;;5033218;28;20704;-73
2024/03/07 02:08:16;;;;;;;19.45;11.52;;;3.60;99.90;;;;;;5033028;28;20240;-74
2024/03/07 02:10:43;;;;;;;18.63;11.65;;;3.60;99.90;;;;;;5032549;28;20203;-74
2024/03/07 02:13:10;;;;;;;21.25;12.63;;;3.60;99.90;;;;;;5033015;28;20297;-74
2024/03/07 02:15:37;;;;;;;18.80;10.77;;;3.60;99.90;;;;;;5032671;28;20843;-73
2024/03/07 02:18:04;;;;;;;20.83;11.15;;;3.50;99.90;;;;;;5031672;28;20202;-74
2024/03/07 02:20:32;;;;;;;18.83;10.88;;;3.50;99.90;;;;;;5032536;28;20243;-74
2024/03/07 02:23:00;;;;;;;20.23;12.35;;;3.40;99.90;;;;;;5032729;28;20211;-74
2024/03/07 02:25:27;;;;;;;23.65;15.18;;;3.30;99.90;;;;;;5032716;28;20253;-74
2024/03/07 02:27:54;;;;;;;21.63;12.25;;;3.30;99.90;;;;;;5032459;28;20719;-73
2024/03/07 02:30:21;;;;;;;22.13;11.45;;;3.20;99.90;;;;;;5032476;28;20290;-74
2024/03/07 02:32:51;;;;;;;22.10;12.05;;;3.10;99.90;;;;;;5032388;28;20211;-74
2024/03/07 02:35:19;;;;;;;19.02;9.82;;;3.10;99.90;;;;;;5032579;28;20248;-73
2024/03/07 02:37:46;;;;;;;19.48;11.48;;;3.00;99.90;;;;;;5032386;28;20750;-73
2024/03/07 02:40:15;;;;;;;25.63;10.65;;;3.00;99.90;;;;;;5032285;28;20206;-74
2024/03/07 02:42:42;;;;;;;21.00;11.75;;;2.90;99.90;;;;;;5032575;28;20285;-74
2024/03/07 02:45:10;;;;;;;18.80;11.18;;;2.90;99.90;;;;;;5032236;28;20749;-73
2024/03/07 02:47:38;;;;;;;19.65;10.43;;;2.80;99.90;;;;;;5032275;28;20265;-74
2024/03/07 02:50:06;;;;;;;19.98;11.63;;;2.80;99.90;;;;;;5032025;28;20218;-74
2024/03/07 02:52:33;;;;;;;17.95;10.48;;;2.80;99.90;;;;;;5032360;28;20641;-74
2024/03/07 02:55:00;;;;;;;18.85;12.15;;;2.70;99.90;;;;;;5032036;28;20319;-74
2024/03/07 02:57:28;;;;;;;17.60;11.98;;;2.70;99.90;;;;;;5032139;28;20225;-75
2024/03/07 02:59:54;;;;;;;21.90;10.88;;;2.60;99.90;;;;;;5031740;28;20213;-74
2024/03/07 03:02:21;;;;;;;20.27;11.40;;;2.50;99.90;;;;;;5032034;28;20229;-74
2024/03/07 03:04:48;;;;;;;22.92;11.55;;;2.40;99.90;;;;;;5031779;28;20234;-74
2024/03/07 03:07:15;;;;;;;22.02;11.82;;;2.40;99.90;;;;;;5031920;28;20230;-74
2024/03/07 03:09:43;;;;;;;18.98;10.20;;;2.40;99.90;;;;;;5031672;28;20298;-74
2024/03/07 03:12:10;;;;;;;19.13;12.13;;;2.40;99.90;;;;;;5032176;28;20644;-73
2024/03/07 03:14:38;;;;;;;22.35;12.50;;;2.30;99.90;;;;;;5031673;28;20228;-74
2024/03/07 03:17:04;;;;;;;18.63;9.85;;;2.20;99.90;;;;;;5031633;28;20209;-74
2024/03/07 03:19:31;;;;;;;18.65;11.13;;;2.20;99.90;;;;;;5031359;28;20213;-74
2024/03/07 03:21:58;;;;;;;17.77;9.32;;;2.20;99.90;;;;;;5031611;28;20202;-74
2024/03/07 03:24:25;;;;;;;20.33;10.70;;;2.10;99.90;;;;;;5031462;28;20226;-74
2024/03/07 03:26:52;;;;;;;21.02;11.00;;;2.10;99.90;;;;;;5031519;28;20228;-74
2024/03/07 03:29:18;;;;;;;21.55;11.85;;;2.10;99.90;;;;;;5031164;28;20238;-72
2024/03/07 03:31:46;;;;;;;21.67;10.13;;;2.10;99.90;;;;;;5031431;28;20212;-75
2024/03/07 03:34:13;;;;;;;22.88;12.63;;;2.00;99.90;;;;;;5031467;28;20230;-73
2024/03/07 03:36:40;;;;;;;18.50;10.30;;;1.90;99.90;;;;;;5031454;28;20202;-73
2024/03/07 03:39:10;;;;;;;17.73;9.18;;;1.90;99.90;;;;;;5031692;28;20588;-74
2024/03/07 03:41:37;;;;;;;20.55;12.23;;;1.90;99.90;;;;;;5031855;28;20209;-73
2024/03/07 03:44:06;;;;;;;20.15;11.20;;;1.90;99.90;;;;;;5031341;28;20233;-73
2024/03/07 03:46:32;;;;;;;17.60;9.95;;;1.80;99.90;;;;;;5031452;28;20289;-73
2024/03/07 03:49:00;;;;;;;17.80;10.65;;;1.80;99.90;;;;;;5031094;28;20205;-73
2024/03/07 03:51:27;;;;;;;15.75;9.77;;;1.80;99.90;;;;;;5031243;28;20202;-73
2024/03/07 03:53:54;;;;;;;18.33;10.35;;;1.70;99.90;;;;;;5031223;28;20317;-73
2024/03/07 03:56:21;;;;;;;19.02;9.82;;;1.70;99.90;;;;;;5031472;28;20206;-73
2024/03/07 03:58:48;;;;;;;16.73;10.40;;;1.70;99.90;;;;;;5031018;28;20214;-73
2024/03/07 04:01:16;;;;;;;19.83;9.50;;;1.70;99.90;;;;;;5031169;28;20618;-73
2024/03/07 04:03:46;;;;;;;19.40;11.63;;;1.70;99.90;;;;;;5030979;28;20212;-73
2024/03/07 04:06:15;;;;;;;19.48;11.88;;;1.60;99.90;;;;;;5031106;28;20263;-73
2024/03/07 04:08:41;;;;;;;17.88;11.77;;;1.60;99.90;;;;;;5030912;28;20257;-73
2024/03/07 04:11:09;;;;;;;21.05;11.57;;;1.60;99.90;;;;;;5031267;28;20202;-73
2024/03/07 04:13:36;;;;;;;26.80;12.23;;;1.60;99.90;;;;;;5031194;28;20579;-73
2024/03/07 04:16:03;;;;;;;18.40;12.30;;;1.50;99.90;;;;;;5031090;28;20217;-74
2024/03/07 04:18:30;;;;;;;18.90;10.48;;;1.40;99.90;;;;;;5030943;28;20202;-73
2024/03/07 04:20:56;;;;;;;28.05;13.60;;;1.40;99.90;;;;;;5030846;28;20214;-74
2024/03/07 04:23:24;;;;;;;15.40;9.50;;;1.40;99.90;;;;;;5031285;28;20214;-74
2024/03/07 04:25:51;;;;;;;18.15;9.95;;;1.40;99.90;;;;;;5031119;28;20296;-74
2024/03/07 04:28:19;;;;;;;23.85;12.35;;;1.40;99.90;;;;;;5030975;28;20230;-73
2024/03/07 04:30:45;;;;;;;19.30;10.25;;;1.40;99.90;;;;;;5030585;28;20216;-73
2024/03/07 04:33:12;;;;;;;24.15;12.13;;;1.40;99.90;;;;;;5029134;28;20194;-73
2024/03/07 04:35:39;;;;;;;22.10;12.48;;;1.40;99.90;;;;;;5024025;28;20249;-73
2024/03/07 04:38:09;;;;;;;20.88;10.70;;;1.40;99.90;;;;;;5024164;28;20198;-74
2024/03/07 04:40:38;;;;;;;14.57;9.93;;;1.40;99.90;;;;;;5023396;28;20210;-73
2024/03/07 04:43:05;;;;;;;19.08;11.63;;;1.40;99.90;;;;;;5027959;28;20252;-74
2024/03/07 04:45:32;;;;;;;17.67;12.30;;;1.50;99.90;;;;;;5026642;28;20231;-74
2024/03/07 04:47:58;;;;;;;19.17;11.32;;;1.50;99.90;;;;;;5028457;28;20217;-73
2024/03/07 04:50:26;;;;;;;22.73;13.02;;;1.50;99.90;;;;;;5026015;28;20210;-74
2024/03/07 04:52:53;;;;;;;31.02;15.23;;;1.50;99.90;;;;;;5028606;28;20210;-74
2024/03/07 04:55:20;;;;;;;21.70;14.10;;;1.60;99.90;;;;;;5026069;28;20249;-74
2024/03/07 04:57:48;;;;;;;21.45;12.70;;;1.60;99.90;;;;;;5026873;28;20206;-74
2024/03/07 05:00:18;;;;;;;22.60;15.32;;;1.70;99.90;;;;;;5033978;28;20206;-74
2024/03/07 05:02:46;;;;;;;25.15;12.40;;;1.70;99.90;;;;;;5034243;28;20319;-74
2024/03/07 05:05:13;;;;;;;22.77;11.95;;;1.70;99.90;;;;;;5034128;28;20324;-74
2024/03/07 05:07:41;;;;;;;21.88;13.15;;;1.70;99.90;;;;;;5034299;28;20226;-73
2024/03/07 05:10:08;;;;;;;19.08;10.65;;;1.70;99.90;;;;;;5033709;28;20683;-73
2024/03/07 05:12:36;;;;;;;24.65;12.77;;;1.70;99.90;;;;;;5034042;28;20229;-73
2024/03/07 05:15:05;;;;;;;22.50;12.13;;;1.70;99.90;;;;;;5033861;28;20253;-73
2024/03/07 05:17:34;;;;;;;19.42;11.02;;;1.60;99.90;;;;;;5035160;28;20208;-74
2024/03/07 05:20:01;;;;;;;20.83;10.65;;;1.60;99.90;;;;;;5035995;28;20202;-73
2024/03/07 05:22:30;;;;;;;19.27;10.77;;;1.50;99.90;;;;;;5033837;28;20201;-74
2024/03/07 05:24:58;;;;;;;19.92;11.07;;;1.50;99.90;;;;;;5033692;28;20321;-75
2024/03/07 05:27:25;;;;;;;21.45;11.65;;;1.50;99.90;;;;;;5033803;28;20268;-74
2024/03/07 05:29:52;;;;;;;19.40;11.80;;;1.50;99.90;;;;;;5033483;28;20210;-75
2024/03/07 05:32:24;;;;;;;17.77;9.90;;;1.40;99.90;;;;;;5033737;28;20210;-73
2024/03/07 05:34:51;;;;;;;19.10;12.30;;;1.40;99.90;;;;;;5033804;28;20229;-76
2024/03/07 05:37:20;;;;;;;18.92;10.63;;;1.40;99.90;;;;;;5034210;28;20279;-75
2024/03/07 05:39:46;;;;;;;17.25;11.70;;;1.40;99.90;;;;;;5033288;28;20280;-75
2024/03/07 05:42:14;;;;;;;19.13;11.43;;;1.40;99.90;;;;;;5033609;28;20233;-75
2024/03/07 05:44:41;;;;;;;19.17;10.15;;;1.40;99.90;;;;;;5033362;28;20233;-75
2024/03/07 05:47:08;;;;;;;27.42;12.02;;;1.40;99.90;;;;;;5033278;28;20210;-74
2024/03/07 05:49:37;;;;;;;21.13;12.30;;;1.40;99.90;;;;;;5033045;28;20210;-75
2024/03/07 05:52:05;;;;;;;19.60;10.95;;;1.40;99.90;;;;;;5032893;28;20601;-73
2024/03/07 05:54:32;;;;;;;17.13;11.20;;;1.40;99.90;;;;;;5033194;28;20222;-72
2024/03/07 05:56:59;;;;;;;17.35;9.95;;;1.30;99.90;;;;;;5033291;28;20214;-75
2024/03/07 05:59:28;;;;;;;22.35;12.32;;;1.30;99.90;;;;;;5033210;28;20237;-75
2024/03/07 06:01:55;;;;;;;19.98;11.48;;;1.30;99.90;;;;;;5033088;28;20298;-74
2024/03/07 06:04:22;;;;;;;18.25;11.52;;;1.30;99.90;;;;;;5031529;28;20284;-75
2024/03/07 06:06:50;;;;;;;23.38;11.48;;;1.30;99.90;;;;;;5032539;28;20221;-74
2024/03/07 06:09:21;;;;;;;18.38;11.52;;;1.30;99.90;;;;;;5031300;28;20230;-74
2024/03/07 06:11:48;;;;;;;23.45;12.32;;;1.30;99.90;;;;;;5032536;28;20589;-72
2024/03/07 06:14:16;;;;;;;27.00;12.95;;;1.30;99.90;;;;;;5032936;28;20230;-73
2024/03/07 06:16:43;;;;;;;18.63;11.43;;;1.20;99.90;;;;;;5033128;28;20216;-72
2024/03/07 06:19:10;;;;;;;18.27;10.60;;;1.20;99.90;;;;;;5032684;28;20205;-72
2024/03/07 06:21:39;;;;;;;21.90;11.05;;;1.20;99.90;;;;;;5032757;28;20210;-73
2024/03/07 06:24:08;;;;;;;29.77;12.35;;;1.20;99.90;;;;;;5032636;28;20911;-74
2024/03/07 06:26:47;;;;;;;24.85;11.32;;;1.10;99.90;;;;;;5032772;28;20210;-72
2024/03/07 06:29:15;;;;;;;14.65;8.85;;;1.10;99.90;;;;;;5032452;28;20734;-72
2024/03/07 06:31:42;;;;;;;24.88;12.10;;;1.10;99.90;;;;;;5032562;28;20244;-72
2024/03/07 06:34:09;;;;;;;14.57;9.80;;;1.20;99.90;;;;;;5032554;28;20230;-72
2024/03/07 06:36:36;;;;;;;15.23;10.27;;;1.20;99.90;;;;;;5032682;28;20588;-73
2024/03/07 06:39:04;;;;;;;21.33;13.20;;;1.30;99.90;;;;;;5032337;28;20225;-72
2024/03/07 06:41:32;;;;;;;28.77;15.82;;;1.30;99.90;;;;;;5031964;28;20938;-72
2024/03/07 06:43:59;;;;;;;31.20;14.07;;;1.40;99.90;;;;;;5032165;28;20233;-72
2024/03/07 06:46:26;;;;;;;18.40;12.25;;;1.40;99.90;;;;;;5032548;28;20610;-72
2024/03/07 06:48:53;;;;;;;17.38;11.65;;;1.50;99.90;;;;;;5032188;28;20229;-72
2024/03/07 06:51:20;;;;;;;18.73;11.35;;;1.60;99.90;;;;;;5032329;28;20213;-72
2024/03/07 06:53:47;;;;;;;21.35;11.65;;;1.70;99.90;;;;;;5032114;28;20753;-72
2024/03/07 06:56:14;;;;;;;23.58;13.68;;;1.90;99.90;;;;;;5032192;28;20260;-72
2024/03/07 06:58:42;;;;;;;20.52;11.90;;;1.90;99.90;;;;;;5032036;28;20205;-72
2024/03/07 07:01:10;;;;;;;25.75;11.00;;;2.00;99.90;;;;;;5031933;28;20230;-72
2024/03/07 07:03:37;;;;;;;19.83;11.73;;;2.00;99.90;;;;;;5029565;28;20228;-72
2024/03/07 07:06:06;;;;;;;17.33;11.35;;;2.10;99.90;;;;;;5031055;28;20221;-73
2024/03/07 07:08:34;;;;;;;19.27;12.10;;;2.10;99.90;;;;;;5031970;28;20317;-73
2024/03/07 07:11:03;;;;;;;21.60;12.63;;;2.20;99.90;;;;;;5031946;28;20625;-73
2024/03/07 07:13:31;;;;;;;23.60;11.95;;;2.20;99.90;;;;;;5031837;28;20214;-73
2024/03/07 07:15:59;;;;;;;21.27;12.10;;;2.20;99.90;;;;;;5031972;28;20214;-73
2024/03/07 07:18:27;;;;;;;23.60;13.15;;;2.30;99.90;;;;;;5031821;28;20200;-72
2024/03/07 07:20:54;;;;;;;21.30;12.20;;;2.50;99.90;;;;;;5024246;28;20732;-73
2024/03/07 07:23:21;;;;;;;24.83;12.75;;;2.60;99.90;;;;;;5031825;28;20675;-73
2024/03/07 07:25:49;;;;;;;21.48;12.93;;;2.70;99.90;;;;;;5032073;28;20253;-73
2024/03/07 07:28:17;;;;;;;22.05;12.38;;;2.80;99.90;;;;;;5039432;28;20283;-72
2024/03/07 07:30:45;;;;;;;24.08;13.43;;;2.90;99.90;;;;;;5032893;28;20210;-73
2024/03/07 07:33:14;;;;;;;23.38;13.10;;;3.10;99.90;;;;;;5031994;28;20209;-73
2024/03/07 07:35:42;;;;;;;21.08;11.52;;;3.20;99.90;;;;;;5031740;28;20231;-73
2024/03/07 07:38:10;;;;;;;27.02;14.32;;;3.40;99.90;;;;;;5031812;28;20217;-73
2024/03/07 07:40:38;;;;;;;22.30;12.25;;;3.40;99.90;;;;;;5032114;28;20203;-73
2024/03/07 07:43:06;;;;;;;23.88;14.23;;;3.50;99.90;;;;;;5031822;28;20226;-73
2024/03/07 07:45:35;;;;;;;24.75;13.73;;;3.70;99.90;;;;;;5030695;28;20246;-73
2024/03/07 07:48:02;;;;;;;16.83;11.25;;;3.80;99.90;;;;;;5038129;28;20233;-73
2024/03/07 07:50:34;;;;;;;21.67;12.73;;;4.00;99.90;;;;;;5031735;28;20206;-73
2024/03/07 07:53:07;;;;;;;20.77;12.80;;;4.00;99.90;;;;;;5032091;28;20290;-73
2024/03/07 07:55:34;;;;;;;21.98;12.50;;;4.20;99.90;;;;;;5031646;28;20223;-73
2024/03/07 07:58:03;;;;;;;21.52;10.95;;;4.40;99.90;;;;;;5031621;28;20211;-74
2024/03/07 08:00:31;;;;;;;19.30;11.05;;;4.70;99.90;;;;;;5031059;28;20204;-74
2024/03/07 08:02:58;;;;;;;22.75;12.02;;;4.90;99.90;;;;;;5031578;28;20302;-73
2024/03/07 08:05:27;;;;;;;17.13;12.23;;;5.20;99.90;;;;;;5031398;28;20655;-73
2024/03/07 08:07:57;;;;;;;24.85;13.23;;;5.80;99.90;;;;;;5022800;28;20206;-73
2024/03/07 08:10:25;;;;;;;23.38;11.98;;;6.60;99.90;;;;;;5023228;28;20630;-74
2024/03/07 08:12:52;;;;;;;20.60;11.80;;;7.50;99.90;;;;;;5029237;28;20292;-74
2024/03/07 08:15:19;;;;;;;20.88;11.45;;;8.30;99.90;;;;;;5030485;28;20230;-74
2024/03/07 08:17:48;;;;;;;19.08;11.82;;;8.60;99.90;;;;;;5033489;28;20221;-73
2024/03/07 08:20:17;;;;;;;20.20;12.23;;;8.90;99.90;;;;;;5032729;28;20205;-74
2024/03/07 08:22:45;;;;;;;16.63;10.52;;;9.00;99.90;;;;;;5033085;28;20202;-73
2024/03/07 08:25:14;;;;;;;14.48;10.02;;;8.60;99.90;;;;;;5033241;28;20238;-74
2024/03/07 08:27:43;;;;;;;18.98;11.50;;;7.70;99.90;;;;;;5034928;28;20252;-73
2024/03/07 08:30:12;;;;;;;16.05;9.45;;;7.00;99.90;;;;;;5034566;28;20765;-73
2024/03/07 08:32:39;;;;;;;17.45;10.57;;;6.50;99.90;;;;;;5034999;28;20236;-73
2024/03/07 08:35:09;;;;;;;19.27;10.85;;;6.00;99.90;;;;;;5034445;28;20232;-73
2024/03/07 08:37:36;;;;;;;18.90;11.77;;;5.70;99.90;;;;;;5034779;28;20202;-73
2024/03/07 08:40:06;;;;;;;17.20;10.27;;;5.50;99.90;;;;;;5034175;28;20582;-73
2024/03/07 08:42:35;;;;;;;20.10;11.30;;;5.30;99.90;;;;;;5034579;28;20305;-72
2024/03/07 08:45:04;;;;;;;22.73;12.23;;;5.20;99.90;;;;;;5032609;28;20309;-73
2024/03/07 08:47:30;;;;;;;21.25;11.65;;;4.90;99.90;;;;;;5034874;28;20286;-72
2024/03/07 08:49:57;;;;;;;18.80;12.02;;;4.90;99.90;;;;;;5033620;28;20220;-73
2024/03/07 08:52:24;;;;;;;16.83;10.77;;;4.80;99.90;;;;;;5034329;28;20232;-73
2024/03/07 08:54:50;;;;;;;17.35;11.07;;;4.80;99.90;;;;;;5034227;28;20221;-73
2024/03/07 08:57:18;;;;;;;24.55;10.15;;;4.70;99.90;;;;;;5034109;28;20215;-72
2024/03/07 08:59:46;;;;;;;20.88;11.80;;;4.70;99.90;;;;;;5033904;28;20212;-72
2024/03/07 09:02:13;;;;;;;20.88;12.80;;;4.70;99.90;;;;;;5034355;28;20295;-72
2024/03/07 09:04:40;;;;;;;24.00;11.75;;;4.60;99.90;;;;;;5032871;28;20238;-73
2024/03/07 09:07:07;;;;;;;22.42;11.35;;;4.60;99.90;;;;;;5034124;28;20216;-72
2024/03/07 09:09:34;;;;;;;21.08;11.68;;;4.70;99.90;;;;;;5033533;28;20236;-72
2024/03/07 09:12:01;;;;;;;24.08;11.15;;;4.70;99.90;;;;;;5034320;28;20299;-72
2024/03/07 09:14:28;;;;;;;21.35;11.65;;;4.70;99.90;;;;;;5034363;28;20553;-72
2024/03/07 09:16:56;;;;;;;17.92;11.50;;;4.80;99.90;;;;;;5034025;28;20621;-72
2024/03/07 09:19:24;;;;;;;20.23;11.98;;;4.90;99.90;;;;;;5033959;28;20207;-72
2024/03/07 09:21:52;;;;;;;20.25;11.20;;;5.00;99.90;;;;;;5033609;28;20201;-72
2024/03/07 09:24:21;;;;;;;21.35;12.20;;;5.10;99.90;;;;;;5033697;28;20236;-72
2024/03/07 09:26:48;;;;;;;20.98;10.93;;;5.20;99.90;;;;;;5032948;28;20202;-72
2024/03/07 09:29:14;;;;;;;17.17;11.02;;;5.10;99.90;;;;;;5033401;28;20233;-72
2024/03/07 09:31:41;;;;;;;18.27;10.88;;;5.10;99.90;;;;;;5033476;28;20209;-71
2024/03/07 09:34:09;;;;;;;18.83;10.38;;;5.10;99.90;;;;;;5033477;28;20228;-72
2024/03/07 09:36:36;;;;;;;18.25;12.57;;;5.20;99.90;;;;;;5033531;28;20212;-72
2024/03/07 09:39:03;;;;;;;17.95;10.75;;;5.30;99.90;;;;;;5033355;28;20209;-72
2024/03/07 09:41:30;;;;;;;17.88;11.13;;;5.30;99.90;;;;;;5032696;28;20209;-72
2024/03/07 09:43:58;;;;;;;21.90;13.77;;;5.20;99.90;;;;;;5033288;28;20240;-72
2024/03/07 09:46:25;;;;;;;24.52;12.38;;;5.20;99.90;;;;;;5033269;28;20678;-72
2024/03/07 09:48:54;;;;;;;26.83;12.13;;;5.30;99.90;;;;;;5033003;28;20703;-71
2024/03/07 09:51:22;;;;;;;20.38;13.02;;;5.30;99.90;;;;;;5033056;28;20212;-72
2024/03/07 09:53:51;;;;;;;19.20;10.57;;;5.20;99.90;;;;;;5033179;28;20241;-72
2024/03/07 09:56:21;;;;;;;16.40;10.65;;;5.30;99.90;;;;;;5033414;28;20204;-72
2024/03/07 09:58:50;;;;;;;16.40;11.45;;;5.10;99.90;;;;;;5033026;28;20213;-72
2024/03/07 10:01:20;;;;;;;20.75;12.30;;;5.10;99.90;;;;;;5033013;28;20219;-72
2024/03/07 10:03:49;;;;;;;22.52;11.52;;;5.10;99.90;;;;;;5033105;28;20252;-72
2024/03/07 10:06:15;;;;;;;22.75;11.55;;;5.20;99.90;;;;;;5033065;28;20603;-72
2024/03/07 10:08:44;;;;;;;19.77;11.15;;;5.30;99.90;;;;;;5033024;28;20206;-71
2024/03/07 10:11:11;;;;;;;19.33;10.95;;;5.30;99.90;;;;;;5032737;28;20216;-72
2024/03/07 10:13:37;;;;;;;17.80;11.13;;;5.30;99.90;;;;;;5032845;28;20701;-72
2024/03/07 10:16:05;;;;;;;18.55;11.18;;;5.30;99.90;;;;;;5032950;28;20209;-72
2024/03/07 10:18:32;;;;;;;20.25;11.38;;;5.40;99.90;;;;;;5032934;28;20208;-71
2024/03/07 10:21:01;;;;;;;14.98;10.38;;;5.40;99.90;;;;;;5032708;28;20224;-72
2024/03/07 10:23:27;;;;;;;22.05;10.30;;;5.50;99.90;;;;;;5032520;28;20306;-72
2024/03/07 10:25:56;;;;;;;19.42;10.82;;;5.50;99.90;;;;;;5032781;28;20208;-72
2024/03/07 10:28:23;;;;;;;17.85;10.75;;;5.60;99.90;;;;;;5032640;28;20216;-72
2024/03/07 10:30:51;;;;;;;18.13;11.40;;;5.60;99.90;;;;;;5032235;28;20566;-73
2024/03/07 10:33:19;;;;;;;15.43;10.35;;;5.70;99.90;;;;;;5032385;28;20209;-72
2024/03/07 10:35:49;;;;;;;16.98;9.75;;;5.80;99.90;;;;;;5032475;28;20258;-72
2024/03/07 10:38:18;;;;;;;14.80;9.40;;;6.10;99.90;;;;;;5031862;28;20213;-73
2024/03/07 10:40:47;;;;;;;15.68;9.27;;;6.80;99.90;;;;;;5031848;28;20211;-73
2024/03/07 10:43:17;;;;;;;14.68;8.48;;;7.70;99.90;;;;;;5032393;28;20206;-73
2024/03/07 10:45:46;;;;;;;20.85;9.45;;;8.30;99.90;;;;;;5031676;28;20257;-73
2024/03/07 10:48:14;;;;;;;18.13;10.52;;;8.50;99.90;;;;;;5032253;28;20202;-73
2024/03/07 10:50:53;;;;;;;16.90;10.25;;;8.70;99.90;;;;;;5032121;28;20225;-73
2024/03/07 10:53:30;;;;;;;15.60;8.80;;;8.30;99.90;;;;;;5032647;28;20651;-73
2024/03/07 10:56:27;;;;;;;20.50;9.93;;;8.00;99.90;;;;;;5032611;28;20201;-72
2024/03/07 10:59:00;;;;;;;17.27;9.43;;;7.80;99.90;;;;;;5023962;28;20206;-73
2024/03/07 11:01:40;;;;;;;14.57;10.77;;;8.00;99.90;;;;;;5088888;27;20543;-73
2024/03/07 11:04:08;;;;;;;17.25;9.80;;;8.00;99.90;;;;;;5073789;28;20228;-73
2024/03/07 11:06:36;;;;;;;16.02;10.43;;;8.00;99.90;;;;;;5065700;28;20754;-73
2024/03/07 11:09:09;;;;;;;17.77;10.20;;;8.10;99.90;;;;;;5068250;28;20221;-73
2024/03/07 11:11:37;;;;;;;16.38;10.35;;;8.10;99.90;;;;;;5068434;28;20259;-73
2024/03/07 11:14:05;;;;;;;16.67;9.75;;;8.30;99.90;;;;;;5063726;28;20620;-73
2024/03/07 11:16:34;;;;;;;16.20;9.88;;;8.60;99.90;;;;;;5065676;28;20216;-73
2024/03/07 11:19:21;;;;;;;14.95;9.73;;;8.90;99.90;;;;;;5066562;28;20214;-73
2024/03/07 11:21:48;;;;;;;15.23;8.75;;;8.80;99.90;;;;;;5070836;28;20215;-72
2024/03/07 11:24:25;;;;;;;20.08;10.45;;;8.70;99.90;;;;;;5060737;28;20316;-72
2024/03/07 11:26:53;;;;;;;14.80;9.45;;;8.90;99.90;;;;;;5067451;28;20206;-72
2024/03/07 11:29:47;;;;;;;13.07;9.02;;;10.00;99.90;;;;;;5062933;28;20213;-72
2024/03/07 11:32:17;;;;;;;19.10;11.00;;;10.80;99.90;;;;;;5066166;28;20209;-72
2024/03/07 11:34:46;;;;;;;17.15;9.82;;;10.70;99.90;;;;;;5063525;28;20235;-73
2024/03/07 11:37:18;;;;;;;19.35;10.77;;;10.60;99.90;;;;;;5067275;28;20207;-73
2024/03/07 11:39:46;;;;;;;17.40;11.27;;;10.70;99.90;;;;;;5063592;28;20601;-73
2024/03/07 11:42:28;;;;;;;21.08;11.32;;;11.10;99.90;;;;;;5067209;28;20649;-73
2024/03/07 11:44:56;;;;;;;15.00;9.30;;;11.50;99.90;;;;;;5060490;28;20232;-72
2024/03/07 11:47:25;;;;;;;16.98;11.38;;;10.70;99.90;;;;;;5067527;28;20289;-72
2024/03/07 11:49:52;;;;;;;17.15;10.45;;;10.00;99.90;;;;;;5064176;28;20517;-73
2024/03/07 11:52:19;;;;;;;19.38;11.25;;;9.50;99.90;;;;;;5066842;28;20213;-73
2024/03/07 11:54:48;;;;;;;16.77;9.85;;;9.20;99.90;;;;;;5060198;28;20251;-73
2024/03/07 11:57:17;;;;;;;18.50;11.40;;;8.50;99.90;;;;;;5062781;28;20207;-72
2024/03/07 11:59:45;;;;;;;16.95;10.38;;;8.30;99.90;;;;;;5064732;28;20277;-73
2024/03/07 12:02:15;;;;;;;18.55;10.85;;;8.20;99.90;;;;;;5065963;28;20281;-73
2024/03/07 12:04:43;;;;;;;17.75;9.82;;;8.10;99.90;;;;;;5063010;28;20231;-73
2024/03/07 12:07:10;;;;;;;20.55;10.20;;;8.10;99.90;;;;;;5062718;28;20210;-73
2024/03/07 12:09:38;;;;;;;18.63;10.73;;;8.20;99.90;;;;;;5063861;28;20572;-72
2024/03/07 12:12:06;;;;;;;19.23;10.10;;;8.20;99.90;;;;;;5057245;28;20217;-72
2024/03/07 12:14:33;;;;;;;14.52;10.05;;;8.20;99.90;;;;;;5051959;28;20230;-72
2024/03/07 12:17:01;;;;;;;13.07;9.10;;;8.10;99.90;;;;;;5053487;28;20280;-73
2024/03/07 12:19:28;;;;;;;22.83;10.18;;;8.20;99.90;;;;;;5052079;28;20227;-73
2024/03/07 12:22:01;;;;;;;18.60;10.13;;;8.20;99.90;;;;;;5049251;28;20218;-73
2024/03/07 12:24:28;;;;;;;22.33;11.25;;;8.30;99.90;;;;;;5053031;28;20226;-73
2024/03/07 12:27:05;;;;;;;18.17;9.93;;;8.30;99.90;;;;;;5049244;28;20832;-74
2024/03/07 12:29:32;;;;;;;21.30;13.38;;;8.50;99.90;;;;;;5059480;28;20206;-73
2024/03/07 12:32:00;;;;;;;17.40;10.70;;;8.70;99.90;;;;;;5053027;28;20307;-73
2024/03/07 12:34:30;;;;;;;21.25;12.15;;;9.00;99.90;;;;;;5054167;28;20705;-73
2024/03/07 12:36:57;;;;;;;18.63;11.90;;;9.50;99.90;;;;;;5049277;28;20219;-73
2024/03/07 12:39:26;;;;;;;22.42;12.15;;;9.70;99.90;;;;;;5052741;28;20244;-73
2024/03/07 12:41:54;;;;;;;22.67;11.20;;;9.70;99.90;;;;;;5057246;28;20220;-73